sensor_id;sensor_type;location;lat;lon;timestamp;P1;durP1;ratioP1;P2;durP2;ratioP2
80694;SDS011;70059;42.702;23.312;2023-06-22T00:01:58;20.45;;;17.65;;
80694;SDS011;70059;42.702;23.312;2023-06-22T00:04:24;19.85;;;17.85;;
80694;SDS011;70059;42.702;23.312;2023-06-22T00:06:50;22.65;;;18.00;;
80694;SDS011;70059;42.702;23.312;2023-06-22T00:09:16;19.17;;;17.15;;
80694;SDS011;70059;42.702;23.312;2023-06-22T00:11:41;19.60;;;17.55;;
80694;SDS011;70059;42.702;23.312;2023-06-22T00:14:07;21.30;;;17.60;;
80694;SDS011;70059;42.702;23.312;2023-06-22T00:16:33;19.90;;;17.85;;
80694;SDS011;70059;42.702;23.312;2023-06-22T00:18:59;21.25;;;19.27;;
80694;SDS011;70059;42.702;23.312;2023-06-22T00:21:26;19.23;;;17.30;;
80694;SDS011;70059;42.702;23.312;2023-06-22T00:23:52;19.85;;;16.80;;
80694;SDS011;70059;42.702;23.312;2023-06-22T00:26:17;19.10;;;16.25;;
80694;SDS011;70059;42.702;23.312;2023-06-22T00:28:44;21.67;;;17.45;;
80694;SDS011;70059;42.702;23.312;2023-06-22T00:31:09;19.95;;;17.85;;
80694;SDS011;70059;42.702;23.312;2023-06-22T00:33:36;19.40;;;17.40;;
80694;SDS011;70059;42.702;23.312;2023-06-22T00:36:02;19.17;;;16.60;;
80694;SDS011;70059;42.702;23.312;2023-06-22T00:38:28;16.75;;;13.55;;
80694;SDS011;70059;42.702;23.312;2023-06-22T00:40:54;21.98;;;19.88;;
80694;SDS011;70059;42.702;23.312;2023-06-22T00:43:19;19.02;;;17.13;;
80694;SDS011;70059;42.702;23.312;2023-06-22T00:45:45;19.70;;;17.60;;
80694;SDS011;70059;42.702;23.312;2023-06-22T00:48:12;19.63;;;17.63;;
80694;SDS011;70059;42.702;23.312;2023-06-22T00:50:38;17.38;;;15.48;;
80694;SDS011;70059;42.702;23.312;2023-06-22T00:53:05;24.80;;;17.00;;
80694;SDS011;70059;42.702;23.312;2023-06-22T00:55:42;19.45;;;17.27;;
80694;SDS011;70059;42.702;23.312;2023-06-22T00:58:10;17.92;;;16.13;;
80694;SDS011;70059;42.702;23.312;2023-06-22T01:00:37;17.80;;;16.00;;
80694;SDS011;70059;42.702;23.312;2023-06-22T01:03:04;16.52;;;13.25;;
80694;SDS011;70059;42.702;23.312;2023-06-22T01:05:33;15.75;;;13.75;;
80694;SDS011;70059;42.702;23.312;2023-06-22T01:16:28;15.77;;;12.50;;
80694;SDS011;70059;42.702;23.312;2023-06-22T01:18:54;18.85;;;12.80;;
80694;SDS011;70059;42.702;23.312;2023-06-22T01:21:23;16.95;;;13.88;;
80694;SDS011;70059;42.702;23.312;2023-06-22T01:29:09;18.73;;;12.82;;
80694;SDS011;70059;42.702;23.312;2023-06-22T01:31:39;16.60;;;12.77;;
80694;SDS011;70059;42.702;23.312;2023-06-22T01:34:07;16.25;;;12.35;;
80694;SDS011;70059;42.702;23.312;2023-06-22T01:36:34;15.68;;;12.73;;
80694;SDS011;70059;42.702;23.312;2023-06-22T01:39:02;14.88;;;12.75;;
80694;SDS011;70059;42.702;23.312;2023-06-22T01:41:32;16.17;;;12.88;;
80694;SDS011;70059;42.702;23.312;2023-06-22T01:44:01;15.25;;;12.15;;
80694;SDS011;70059;42.702;23.312;2023-06-22T01:46:35;17.13;;;12.98;;
80694;SDS011;70059;42.702;23.312;2023-06-22T01:49:03;16.73;;;13.40;;
80694;SDS011;70059;42.702;23.312;2023-06-22T01:51:30;14.50;;;12.68;;
80694;SDS011;70059;42.702;23.312;2023-06-22T01:53:56;15.65;;;12.52;;
80694;SDS011;70059;42.702;23.312;2023-06-22T01:56:22;15.93;;;12.40;;
80694;SDS011;70059;42.702;23.312;2023-06-22T01:58:53;15.02;;;12.90;;
80694;SDS011;70059;42.702;23.312;2023-06-22T02:01:32;16.10;;;12.80;;
80694;SDS011;70059;42.702;23.312;2023-06-22T02:04:09;16.38;;;12.77;;
80694;SDS011;70059;42.702;23.312;2023-06-22T02:09:16;16.17;;;12.80;;
80694;SDS011;70059;42.702;23.312;2023-06-22T02:11:44;17.98;;;14.30;;
80694;SDS011;70059;42.702;23.312;2023-06-22T02:14:12;17.10;;;15.27;;
80694;SDS011;70059;42.702;23.312;2023-06-22T02:16:38;19.23;;;16.73;;
80694;SDS011;70059;42.702;23.312;2023-06-22T02:19:05;20.33;;;14.88;;
80694;SDS011;70059;42.702;23.312;2023-06-22T02:21:31;20.23;;;13.88;;
80694;SDS011;70059;42.702;23.312;2023-06-22T02:23:57;17.17;;;14.07;;
80694;SDS011;70059;42.702;23.312;2023-06-22T02:26:24;16.23;;;14.32;;
80694;SDS011;70059;42.702;23.312;2023-06-22T02:28:50;17.83;;;13.88;;
80694;SDS011;70059;42.702;23.312;2023-06-22T02:31:16;17.90;;;14.10;;
80694;SDS011;70059;42.702;23.312;2023-06-22T02:33:42;17.17;;;14.98;;
80694;SDS011;70059;42.702;23.312;2023-06-22T02:36:09;21.88;;;14.82;;
80694;SDS011;70059;42.702;23.312;2023-06-22T02:38:38;16.17;;;13.50;;
80694;SDS011;70059;42.702;23.312;2023-06-22T02:41:13;18.13;;;14.38;;
80694;SDS011;70059;42.702;23.312;2023-06-22T02:43:43;17.85;;;14.88;;
80694;SDS011;70059;42.702;23.312;2023-06-22T02:46:11;17.20;;;15.50;;
80694;SDS011;70059;42.702;23.312;2023-06-22T02:48:38;16.80;;;13.18;;
80694;SDS011;70059;42.702;23.312;2023-06-22T02:51:05;18.88;;;13.05;;
80694;SDS011;70059;42.702;23.312;2023-06-22T02:53:31;17.77;;;12.48;;
80694;SDS011;70059;42.702;23.312;2023-06-22T02:55:57;15.85;;;14.20;;
80694;SDS011;70059;42.702;23.312;2023-06-22T02:58:23;18.63;;;15.60;;
80694;SDS011;70059;42.702;23.312;2023-06-22T03:00:49;18.70;;;15.45;;
80694;SDS011;70059;42.702;23.312;2023-06-22T03:03:18;17.58;;;15.43;;
80694;SDS011;70059;42.702;23.312;2023-06-22T03:05:44;18.15;;;15.40;;
80694;SDS011;70059;42.702;23.312;2023-06-22T03:08:10;19.08;;;16.13;;
80694;SDS011;70059;42.702;23.312;2023-06-22T03:10:35;17.10;;;15.10;;
80694;SDS011;70059;42.702;23.312;2023-06-22T03:13:01;20.05;;;16.27;;
80694;SDS011;70059;42.702;23.312;2023-06-22T03:15:27;19.52;;;16.17;;
80694;SDS011;70059;42.702;23.312;2023-06-22T03:17:54;18.38;;;16.05;;
80694;SDS011;70059;42.702;23.312;2023-06-22T03:20:20;25.25;;;16.35;;
80694;SDS011;70059;42.702;23.312;2023-06-22T03:22:46;19.05;;;16.63;;
80694;SDS011;70059;42.702;23.312;2023-06-22T03:25:13;19.30;;;16.27;;
80694;SDS011;70059;42.702;23.312;2023-06-22T03:27:39;26.58;;;17.33;;
80694;SDS011;70059;42.702;23.312;2023-06-22T03:30:06;21.60;;;16.13;;
80694;SDS011;70059;42.702;23.312;2023-06-22T03:32:33;19.08;;;16.25;;
80694;SDS011;70059;42.702;23.312;2023-06-22T03:34:59;18.77;;;16.42;;
80694;SDS011;70059;42.702;23.312;2023-06-22T03:37:28;20.35;;;15.80;;
80694;SDS011;70059;42.702;23.312;2023-06-22T03:39:54;22.92;;;15.88;;
80694;SDS011;70059;42.702;23.312;2023-06-22T03:42:20;20.42;;;16.10;;
80694;SDS011;70059;42.702;23.312;2023-06-22T03:44:47;21.27;;;15.50;;
80694;SDS011;70059;42.702;23.312;2023-06-22T03:47:13;17.30;;;15.27;;
80694;SDS011;70059;42.702;23.312;2023-06-22T03:49:38;19.85;;;15.75;;
80694;SDS011;70059;42.702;23.312;2023-06-22T03:52:04;18.65;;;15.75;;
80694;SDS011;70059;42.702;23.312;2023-06-22T03:54:30;20.42;;;16.23;;
80694;SDS011;70059;42.702;23.312;2023-06-22T03:56:57;20.40;;;16.30;;
80694;SDS011;70059;42.702;23.312;2023-06-22T03:59:23;20.20;;;15.98;;
80694;SDS011;70059;42.702;23.312;2023-06-22T04:01:49;25.25;;;16.15;;
80694;SDS011;70059;42.702;23.312;2023-06-22T04:04:15;21.63;;;16.17;;
80694;SDS011;70059;42.702;23.312;2023-06-22T04:06:43;20.77;;;16.95;;
80694;SDS011;70059;42.702;23.312;2023-06-22T04:09:09;20.52;;;16.60;;
80694;SDS011;70059;42.702;23.312;2023-06-22T04:11:35;21.80;;;17.98;;
80694;SDS011;70059;42.702;23.312;2023-06-22T04:14:00;23.13;;;20.40;;
80694;SDS011;70059;42.702;23.312;2023-06-22T04:16:26;27.80;;;19.48;;
80694;SDS011;70059;42.702;23.312;2023-06-22T04:18:52;17.42;;;14.05;;
80694;SDS011;70059;42.702;23.312;2023-06-22T04:21:22;20.33;;;14.27;;
80694;SDS011;70059;42.702;23.312;2023-06-22T04:23:48;21.50;;;14.30;;
80694;SDS011;70059;42.702;23.312;2023-06-22T04:26:13;20.02;;;14.38;;
80694;SDS011;70059;42.702;23.312;2023-06-22T04:28:39;20.92;;;14.55;;
80694;SDS011;70059;42.702;23.312;2023-06-22T04:31:16;21.27;;;15.75;;
80694;SDS011;70059;42.702;23.312;2023-06-22T04:33:47;21.95;;;14.57;;
80694;SDS011;70059;42.702;23.312;2023-06-22T04:36:16;19.50;;;14.60;;
80694;SDS011;70059;42.702;23.312;2023-06-22T04:38:42;35.58;;;17.23;;
80694;SDS011;70059;42.702;23.312;2023-06-22T04:41:09;33.92;;;16.23;;
80694;SDS011;70059;42.702;23.312;2023-06-22T04:43:48;30.80;;;16.63;;
80694;SDS011;70059;42.702;23.312;2023-06-22T04:46:19;24.13;;;16.25;;
80694;SDS011;70059;42.702;23.312;2023-06-22T04:48:45;22.15;;;15.55;;
80694;SDS011;70059;42.702;23.312;2023-06-22T04:51:10;22.70;;;16.02;;
80694;SDS011;70059;42.702;23.312;2023-06-22T04:53:36;23.30;;;15.50;;
80694;SDS011;70059;42.702;23.312;2023-06-22T04:56:03;19.42;;;15.73;;
80694;SDS011;70059;42.702;23.312;2023-06-22T04:58:30;20.35;;;15.02;;
80694;SDS011;70059;42.702;23.312;2023-06-22T05:00:57;41.33;;;17.15;;
80694;SDS011;70059;42.702;23.312;2023-06-22T05:03:24;24.50;;;17.20;;
80694;SDS011;70059;42.702;23.312;2023-06-22T05:05:51;47.28;;;19.23;;
80694;SDS011;70059;42.702;23.312;2023-06-22T05:08:19;51.85;;;17.13;;
80694;SDS011;70059;42.702;23.312;2023-06-22T05:10:45;35.13;;;16.33;;
80694;SDS011;70059;42.702;23.312;2023-06-22T05:13:10;22.13;;;16.02;;
80694;SDS011;70059;42.702;23.312;2023-06-22T05:15:36;25.15;;;16.00;;
80694;SDS011;70059;42.702;23.312;2023-06-22T05:18:06;18.40;;;15.38;;
80694;SDS011;70059;42.702;23.312;2023-06-22T05:20:38;28.20;;;16.58;;
80694;SDS011;70059;42.702;23.312;2023-06-22T05:23:05;31.95;;;18.48;;
80694;SDS011;70059;42.702;23.312;2023-06-22T05:25:33;22.48;;;16.35;;
80694;SDS011;70059;42.702;23.312;2023-06-22T05:28:00;23.52;;;16.58;;
80694;SDS011;70059;42.702;23.312;2023-06-22T05:30:36;22.45;;;16.35;;
80694;SDS011;70059;42.702;23.312;2023-06-22T05:33:15;25.52;;;17.58;;
80694;SDS011;70059;42.702;23.312;2023-06-22T06:00:01;18.35;;;14.18;;
80694;SDS011;70059;42.702;23.312;2023-06-22T06:02:31;20.85;;;14.13;;
80694;SDS011;70059;42.702;23.312;2023-06-22T06:04:59;19.52;;;13.93;;
80694;SDS011;70059;42.702;23.312;2023-06-22T06:07:24;20.70;;;14.30;;
80694;SDS011;70059;42.702;23.312;2023-06-22T06:09:51;23.80;;;14.73;;
80694;SDS011;70059;42.702;23.312;2023-06-22T06:12:17;25.75;;;15.18;;
80694;SDS011;70059;42.702;23.312;2023-06-22T06:14:42;19.25;;;15.48;;
80694;SDS011;70059;42.702;23.312;2023-06-22T06:24:47;27.98;;;16.08;;
80694;SDS011;70059;42.702;23.312;2023-06-22T06:27:15;20.25;;;16.08;;
80694;SDS011;70059;42.702;23.312;2023-06-22T06:29:43;24.90;;;16.47;;
80694;SDS011;70059;42.702;23.312;2023-06-22T06:32:14;24.27;;;17.00;;
80694;SDS011;70059;42.702;23.312;2023-06-22T06:34:43;23.23;;;16.77;;
80694;SDS011;70059;42.702;23.312;2023-06-22T06:37:09;24.17;;;15.73;;
80694;SDS011;70059;42.702;23.312;2023-06-22T06:39:37;18.20;;;15.15;;
80694;SDS011;70059;42.702;23.312;2023-06-22T06:42:04;19.75;;;14.23;;
80694;SDS011;70059;42.702;23.312;2023-06-22T06:44:30;20.23;;;15.95;;
80694;SDS011;70059;42.702;23.312;2023-06-22T06:46:56;24.17;;;15.32;;
80694;SDS011;70059;42.702;23.312;2023-06-22T06:49:22;18.50;;;15.40;;
80694;SDS011;70059;42.702;23.312;2023-06-22T06:51:48;20.67;;;15.93;;
80694;SDS011;70059;42.702;23.312;2023-06-22T06:54:16;23.00;;;16.92;;
80694;SDS011;70059;42.702;23.312;2023-06-22T06:56:45;20.48;;;14.57;;
80694;SDS011;70059;42.702;23.312;2023-06-22T06:59:13;19.75;;;15.60;;
80694;SDS011;70059;42.702;23.312;2023-06-22T07:01:40;18.77;;;14.65;;
80694;SDS011;70059;42.702;23.312;2023-06-22T07:04:07;24.70;;;14.77;;
80694;SDS011;70059;42.702;23.312;2023-06-22T07:06:33;32.90;;;16.63;;
80694;SDS011;70059;42.702;23.312;2023-06-22T07:09:00;20.98;;;15.68;;
80694;SDS011;70059;42.702;23.312;2023-06-22T07:11:26;33.00;;;16.73;;
80694;SDS011;70059;42.702;23.312;2023-06-22T07:13:52;23.27;;;15.48;;
80694;SDS011;70059;42.702;23.312;2023-06-22T07:16:18;18.67;;;15.35;;
80694;SDS011;70059;42.702;23.312;2023-06-22T07:18:44;19.73;;;15.20;;
80694;SDS011;70059;42.702;23.312;2023-06-22T07:21:10;19.80;;;15.02;;
80694;SDS011;70059;42.702;23.312;2023-06-22T07:23:36;19.75;;;15.02;;
80694;SDS011;70059;42.702;23.312;2023-06-22T07:26:02;19.38;;;13.60;;
80694;SDS011;70059;42.702;23.312;2023-06-22T07:30:59;18.60;;;14.23;;
80694;SDS011;70059;42.702;23.312;2023-06-22T07:33:25;17.83;;;13.43;;
80694;SDS011;70059;42.702;23.312;2023-06-22T07:35:52;18.85;;;13.80;;
80694;SDS011;70059;42.702;23.312;2023-06-22T07:38:20;17.80;;;13.43;;
80694;SDS011;70059;42.702;23.312;2023-06-22T07:40:53;16.63;;;12.35;;
80694;SDS011;70059;42.702;23.312;2023-06-22T07:43:26;21.85;;;13.65;;
80694;SDS011;70059;42.702;23.312;2023-06-22T07:45:54;18.77;;;13.18;;
80694;SDS011;70059;42.702;23.312;2023-06-22T07:48:24;19.48;;;13.98;;
80694;SDS011;70059;42.702;23.312;2023-06-22T07:51:01;17.70;;;13.80;;
80694;SDS011;70059;42.702;23.312;2023-06-22T07:53:56;22.15;;;13.48;;
80694;SDS011;70059;42.702;23.312;2023-06-22T07:56:23;20.98;;;13.68;;
80694;SDS011;70059;42.702;23.312;2023-06-22T07:58:51;19.50;;;14.73;;
80694;SDS011;70059;42.702;23.312;2023-06-22T08:01:18;21.45;;;14.70;;
80694;SDS011;70059;42.702;23.312;2023-06-22T08:03:47;19.55;;;14.43;;
80694;SDS011;70059;42.702;23.312;2023-06-22T08:06:23;16.20;;;13.95;;
80694;SDS011;70059;42.702;23.312;2023-06-22T08:08:48;18.48;;;13.52;;
80694;SDS011;70059;42.702;23.312;2023-06-22T08:11:14;19.35;;;13.63;;
80694;SDS011;70059;42.702;23.312;2023-06-22T08:13:40;18.35;;;14.32;;
80694;SDS011;70059;42.702;23.312;2023-06-22T08:16:06;16.27;;;13.88;;
80694;SDS011;70059;42.702;23.312;2023-06-22T08:18:35;19.00;;;13.73;;
80694;SDS011;70059;42.702;23.312;2023-06-22T08:21:01;15.98;;;12.90;;
80694;SDS011;70059;42.702;23.312;2023-06-22T08:23:27;15.50;;;13.80;;
80694;SDS011;70059;42.702;23.312;2023-06-22T08:25:59;18.33;;;13.82;;
80694;SDS011;70059;42.702;23.312;2023-06-22T08:28:29;14.75;;;12.73;;
80694;SDS011;70059;42.702;23.312;2023-06-22T08:30:59;16.67;;;12.88;;
80694;SDS011;70059;42.702;23.312;2023-06-22T08:34:11;13.57;;;12.18;;
80694;SDS011;70059;42.702;23.312;2023-06-22T08:36:37;16.88;;;12.35;;
80694;SDS011;70059;42.702;23.312;2023-06-22T08:39:17;14.65;;;13.13;;
80694;SDS011;70059;42.702;23.312;2023-06-22T08:41:51;18.40;;;13.55;;
80694;SDS011;70059;42.702;23.312;2023-06-22T08:44:19;14.95;;;13.32;;
80694;SDS011;70059;42.702;23.312;2023-06-22T08:46:45;13.50;;;12.10;;
80694;SDS011;70059;42.702;23.312;2023-06-22T08:49:19;13.90;;;12.33;;
80694;SDS011;70059;42.702;23.312;2023-06-22T08:51:45;14.07;;;12.65;;
80694;SDS011;70059;42.702;23.312;2023-06-22T08:54:17;15.88;;;14.15;;
80694;SDS011;70059;42.702;23.312;2023-06-22T08:56:44;15.05;;;12.77;;
80694;SDS011;70059;42.702;23.312;2023-06-22T08:59:15;14.30;;;12.80;;
80694;SDS011;70059;42.702;23.312;2023-06-22T09:01:41;14.98;;;13.45;;
80694;SDS011;70059;42.702;23.312;2023-06-22T09:04:10;16.15;;;14.95;;
80694;SDS011;70059;42.702;23.312;2023-06-22T09:06:46;14.95;;;11.90;;
80694;SDS011;70059;42.702;23.312;2023-06-22T09:09:16;13.48;;;11.32;;
80694;SDS011;70059;42.702;23.312;2023-06-22T09:11:42;13.50;;;12.10;;
80694;SDS011;70059;42.702;23.312;2023-06-22T09:14:08;15.40;;;12.13;;
80694;SDS011;70059;42.702;23.312;2023-06-22T09:16:42;12.18;;;10.88;;
80694;SDS011;70059;42.702;23.312;2023-06-22T09:19:08;13.00;;;11.77;;
80694;SDS011;70059;42.702;23.312;2023-06-22T09:21:44;12.80;;;11.52;;
80694;SDS011;70059;42.702;23.312;2023-06-22T09:24:12;12.90;;;11.60;;
80694;SDS011;70059;42.702;23.312;2023-06-22T09:30:07;12.70;;;11.48;;
80694;SDS011;70059;42.702;23.312;2023-06-22T09:35:12;12.73;;;11.45;;
80694;SDS011;70059;42.702;23.312;2023-06-22T09:37:39;13.90;;;11.65;;
80694;SDS011;70059;42.702;23.312;2023-06-22T09:45:16;13.48;;;12.20;;
80694;SDS011;70059;42.702;23.312;2023-06-22T09:47:42;13.77;;;12.65;;
80694;SDS011;70059;42.702;23.312;2023-06-22T09:50:12;13.82;;;12.45;;
80694;SDS011;70059;42.702;23.312;2023-06-22T09:52:37;12.02;;;10.90;;
80694;SDS011;70059;42.702;23.312;2023-06-22T09:55:09;13.85;;;12.57;;
80694;SDS011;70059;42.702;23.312;2023-06-22T10:00:11;12.95;;;11.90;;
80694;SDS011;70059;42.702;23.312;2023-06-22T10:05:07;13.38;;;12.18;;
80694;SDS011;70059;42.702;23.312;2023-06-22T10:07:34;14.15;;;12.77;;
80694;SDS011;70059;42.702;23.312;2023-06-22T10:10:05;13.43;;;12.15;;
80694;SDS011;70059;42.702;23.312;2023-06-22T10:20:11;14.27;;;12.48;;
80694;SDS011;70059;42.702;23.312;2023-06-22T10:22:40;14.45;;;13.15;;
80694;SDS011;70059;42.702;23.312;2023-06-22T10:25:08;14.88;;;13.40;;
80694;SDS011;70059;42.702;23.312;2023-06-22T10:27:36;14.38;;;12.98;;
80694;SDS011;70059;42.702;23.312;2023-06-22T10:30:06;14.25;;;12.70;;
80694;SDS011;70059;42.702;23.312;2023-06-22T10:32:33;14.88;;;13.50;;
80694;SDS011;70059;42.702;23.312;2023-06-22T10:34:58;13.68;;;12.55;;
80694;SDS011;70059;42.702;23.312;2023-06-22T10:37:24;14.27;;;12.98;;
80694;SDS011;70059;42.702;23.312;2023-06-22T10:39:50;14.10;;;12.68;;
80694;SDS011;70059;42.702;23.312;2023-06-22T10:42:16;14.70;;;13.15;;
80694;SDS011;70059;42.702;23.312;2023-06-22T10:44:42;14.48;;;12.98;;
80694;SDS011;70059;42.702;23.312;2023-06-22T10:47:09;13.80;;;12.50;;
80694;SDS011;70059;42.702;23.312;2023-06-22T10:52:08;14.38;;;12.88;;
80694;SDS011;70059;42.702;23.312;2023-06-22T10:54:35;15.57;;;14.13;;
80694;SDS011;70059;42.702;23.312;2023-06-22T10:57:04;14.48;;;12.98;;
80694;SDS011;70059;42.702;23.312;2023-06-22T10:59:30;13.93;;;12.73;;
80694;SDS011;70059;42.702;23.312;2023-06-22T11:01:58;15.23;;;13.82;;
80694;SDS011;70059;42.702;23.312;2023-06-22T11:04:28;14.05;;;12.60;;
80694;SDS011;70059;42.702;23.312;2023-06-22T11:06:54;13.98;;;12.70;;
80694;SDS011;70059;42.702;23.312;2023-06-22T11:09:21;14.07;;;12.80;;
80694;SDS011;70059;42.702;23.312;2023-06-22T11:11:48;14.02;;;12.57;;
80694;SDS011;70059;42.702;23.312;2023-06-22T11:14:15;13.50;;;12.20;;
80694;SDS011;70059;42.702;23.312;2023-06-22T11:16:41;14.60;;;13.25;;
80694;SDS011;70059;42.702;23.312;2023-06-22T11:19:08;14.10;;;12.65;;
80694;SDS011;70059;42.702;23.312;2023-06-22T11:21:34;13.38;;;12.05;;
80694;SDS011;70059;42.702;23.312;2023-06-22T11:24:00;14.65;;;13.40;;
80694;SDS011;70059;42.702;23.312;2023-06-22T11:26:29;13.68;;;12.50;;
80694;SDS011;70059;42.702;23.312;2023-06-22T11:28:56;14.40;;;11.32;;
80694;SDS011;70059;42.702;23.312;2023-06-22T11:31:23;13.90;;;12.65;;
80694;SDS011;70059;42.702;23.312;2023-06-22T11:33:49;15.13;;;13.20;;
80694;SDS011;70059;42.702;23.312;2023-06-22T11:36:15;13.30;;;12.10;;
80694;SDS011;70059;42.702;23.312;2023-06-22T11:38:43;12.68;;;11.40;;
80694;SDS011;70059;42.702;23.312;2023-06-22T11:41:09;13.32;;;12.20;;
80694;SDS011;70059;42.702;23.312;2023-06-22T11:43:36;15.10;;;13.55;;
80694;SDS011;70059;42.702;23.312;2023-06-22T11:46:03;14.93;;;13.43;;
80694;SDS011;70059;42.702;23.312;2023-06-22T11:48:29;14.15;;;12.65;;
80694;SDS011;70059;42.702;23.312;2023-06-22T11:50:58;15.17;;;13.77;;
80694;SDS011;70059;42.702;23.312;2023-06-22T11:53:26;17.05;;;15.45;;
80694;SDS011;70059;42.702;23.312;2023-06-22T11:55:54;16.30;;;14.70;;
80694;SDS011;70059;42.702;23.312;2023-06-22T11:58:20;16.58;;;15.18;;
80694;SDS011;70059;42.702;23.312;2023-06-22T12:00:46;17.10;;;15.40;;
80694;SDS011;70059;42.702;23.312;2023-06-22T12:03:12;18.35;;;16.33;;
80694;SDS011;70059;42.702;23.312;2023-06-22T12:05:40;19.77;;;17.98;;
80694;SDS011;70059;42.702;23.312;2023-06-22T12:08:08;21.83;;;19.98;;
80694;SDS011;70059;42.702;23.312;2023-06-22T12:10:43;14.20;;;12.43;;
80694;SDS011;70059;42.702;23.312;2023-06-22T12:13:09;14.55;;;12.93;;
80694;SDS011;70059;42.702;23.312;2023-06-22T12:15:35;14.13;;;12.50;;
80694;SDS011;70059;42.702;23.312;2023-06-22T12:18:01;18.10;;;16.70;;
80694;SDS011;70059;42.702;23.312;2023-06-22T12:20:27;18.50;;;16.58;;
80694;SDS011;70059;42.702;23.312;2023-06-22T12:22:53;17.88;;;16.10;;
80694;SDS011;70059;42.702;23.312;2023-06-22T12:25:21;31.70;;;29.40;;
80694;SDS011;70059;42.702;23.312;2023-06-22T12:27:47;16.42;;;14.43;;
80694;SDS011;70059;42.702;23.312;2023-06-22T12:30:15;21.85;;;19.75;;
80694;SDS011;70059;42.702;23.312;2023-06-22T12:32:46;22.30;;;19.98;;
80694;SDS011;70059;42.702;23.312;2023-06-22T12:35:11;23.90;;;21.27;;
80694;SDS011;70059;42.702;23.312;2023-06-22T12:37:42;22.90;;;18.90;;
80694;SDS011;70059;42.702;23.312;2023-06-22T12:40:08;20.58;;;17.52;;
80694;SDS011;70059;42.702;23.312;2023-06-22T12:42:34;20.88;;;18.90;;
80694;SDS011;70059;42.702;23.312;2023-06-22T12:45:00;19.33;;;17.30;;
80694;SDS011;70059;42.702;23.312;2023-06-22T12:47:26;18.25;;;16.58;;
80694;SDS011;70059;42.702;23.312;2023-06-22T12:49:52;30.75;;;18.13;;
80694;SDS011;70059;42.702;23.312;2023-06-22T12:52:17;17.48;;;15.85;;
80694;SDS011;70059;42.702;23.312;2023-06-22T12:54:43;18.02;;;16.05;;
80694;SDS011;70059;42.702;23.312;2023-06-22T12:57:09;16.95;;;15.30;;
80694;SDS011;70059;42.702;23.312;2023-06-22T12:59:37;17.23;;;15.63;;
80694;SDS011;70059;42.702;23.312;2023-06-22T13:02:05;16.60;;;15.02;;
80694;SDS011;70059;42.702;23.312;2023-06-22T13:04:31;16.95;;;15.27;;
80694;SDS011;70059;42.702;23.312;2023-06-22T13:06:57;18.95;;;15.45;;
80694;SDS011;70059;42.702;23.312;2023-06-22T13:09:22;16.88;;;15.35;;
80694;SDS011;70059;42.702;23.312;2023-06-22T13:11:48;16.75;;;15.07;;
80694;SDS011;70059;42.702;23.312;2023-06-22T13:14:14;16.75;;;15.27;;
80694;SDS011;70059;42.702;23.312;2023-06-22T13:16:41;16.45;;;14.82;;
80694;SDS011;70059;42.702;23.312;2023-06-22T13:19:08;17.05;;;15.25;;
80694;SDS011;70059;42.702;23.312;2023-06-22T13:21:33;18.92;;;17.25;;
80694;SDS011;70059;42.702;23.312;2023-06-22T13:23:59;18.23;;;16.52;;
80694;SDS011;70059;42.702;23.312;2023-06-22T13:26:26;17.65;;;15.95;;
80694;SDS011;70059;42.702;23.312;2023-06-22T13:28:53;18.17;;;16.55;;
80694;SDS011;70059;42.702;23.312;2023-06-22T13:31:19;19.58;;;17.58;;
80694;SDS011;70059;42.702;23.312;2023-06-22T13:33:45;18.75;;;17.15;;
80694;SDS011;70059;42.702;23.312;2023-06-22T13:36:13;20.00;;;18.10;;
80694;SDS011;70059;42.702;23.312;2023-06-22T13:38:39;20.08;;;18.23;;
80694;SDS011;70059;42.702;23.312;2023-06-22T13:41:05;19.15;;;17.25;;
80694;SDS011;70059;42.702;23.312;2023-06-22T13:43:32;19.60;;;17.80;;
80694;SDS011;70059;42.702;23.312;2023-06-22T13:45:58;19.83;;;17.92;;
80694;SDS011;70059;42.702;23.312;2023-06-22T13:48:27;19.90;;;18.00;;
80694;SDS011;70059;42.702;23.312;2023-06-22T13:50:53;20.23;;;18.13;;
80694;SDS011;70059;42.702;23.312;2023-06-22T13:53:19;20.25;;;18.45;;
80694;SDS011;70059;42.702;23.312;2023-06-22T13:55:45;22.50;;;20.30;;
80694;SDS011;70059;42.702;23.312;2023-06-22T13:58:12;20.92;;;18.63;;
80694;SDS011;70059;42.702;23.312;2023-06-22T14:00:38;20.00;;;18.10;;
80694;SDS011;70059;42.702;23.312;2023-06-22T14:03:04;21.98;;;19.75;;
80694;SDS011;70059;42.702;23.312;2023-06-22T14:05:30;22.05;;;19.67;;
80694;SDS011;70059;42.702;23.312;2023-06-22T14:07:55;20.60;;;18.60;;
80694;SDS011;70059;42.702;23.312;2023-06-22T14:10:27;23.55;;;18.65;;
80694;SDS011;70059;42.702;23.312;2023-06-22T14:13:01;22.38;;;19.23;;
80694;SDS011;70059;42.702;23.312;2023-06-22T14:15:42;21.73;;;18.98;;
80694;SDS011;70059;42.702;23.312;2023-06-22T14:18:40;21.23;;;18.95;;
80694;SDS011;70059;42.702;23.312;2023-06-22T14:21:08;25.35;;;19.35;;
80694;SDS011;70059;42.702;23.312;2023-06-22T14:23:37;20.27;;;18.30;;
80694;SDS011;70059;42.702;23.312;2023-06-22T14:26:03;19.15;;;17.45;;
80694;SDS011;70059;42.702;23.312;2023-06-22T14:28:29;19.27;;;17.60;;
80694;SDS011;70059;42.702;23.312;2023-06-22T14:30:58;20.08;;;17.95;;
80694;SDS011;70059;42.702;23.312;2023-06-22T14:33:23;19.42;;;17.55;;
80694;SDS011;70059;42.702;23.312;2023-06-22T14:35:54;20.25;;;17.58;;
80694;SDS011;70059;42.702;23.312;2023-06-22T14:38:20;19.88;;;17.77;;
80694;SDS011;70059;42.702;23.312;2023-06-22T14:40:49;21.13;;;17.33;;
80694;SDS011;70059;42.702;23.312;2023-06-22T14:46:30;20.05;;;18.15;;
80694;SDS011;70059;42.702;23.312;2023-06-22T14:52:00;20.90;;;18.75;;
80694;SDS011;70059;42.702;23.312;2023-06-22T14:54:31;20.38;;;18.20;;
80694;SDS011;70059;42.702;23.312;2023-06-22T14:56:56;21.33;;;18.98;;
80694;SDS011;70059;42.702;23.312;2023-06-22T14:59:22;20.67;;;18.55;;
80694;SDS011;70059;42.702;23.312;2023-06-22T15:01:51;20.88;;;17.98;;
80694;SDS011;70059;42.702;23.312;2023-06-22T15:04:36;19.45;;;17.55;;
80694;SDS011;70059;42.702;23.312;2023-06-22T15:07:07;20.92;;;18.30;;
80694;SDS011;70059;42.702;23.312;2023-06-22T15:12:36;19.30;;;17.30;;
80694;SDS011;70059;42.702;23.312;2023-06-22T15:15:18;18.85;;;17.15;;
80694;SDS011;70059;42.702;23.312;2023-06-22T15:17:47;20.02;;;17.85;;
80694;SDS011;70059;42.702;23.312;2023-06-22T15:20:26;19.15;;;17.20;;
80694;SDS011;70059;42.702;23.312;2023-06-22T15:25:24;21.05;;;17.45;;
80694;SDS011;70059;42.702;23.312;2023-06-22T15:31:41;20.15;;;17.95;;
80694;SDS011;70059;42.702;23.312;2023-06-22T15:34:31;20.27;;;18.27;;
80694;SDS011;70059;42.702;23.312;2023-06-22T15:36:57;19.75;;;17.90;;
80694;SDS011;70059;42.702;23.312;2023-06-22T15:39:28;21.60;;;18.35;;
80694;SDS011;70059;42.702;23.312;2023-06-22T15:41:57;17.38;;;15.65;;
80694;SDS011;70059;42.702;23.312;2023-06-22T15:44:26;18.58;;;16.40;;
80694;SDS011;70059;42.702;23.312;2023-06-22T15:46:52;17.10;;;15.43;;